ROMMA est une association bénévole à but non lucratif. Votre soutien est indispensable : ADHERER à ROMMA ou FAIRE un DON

Briord - (01, Ain)

Bugey (281 m)   Longitude: 05° 29' 13" E   Latitude: 45° 46' 37" N Station partenaire n°15
 

Détail journalier du     <<     >>

Température Precipitation Humidité Pression Vent Dir Rafale Dir. rafale Ensol.
Heure (°C) (mm) (%) (hPa) (km/h) (km/h) (min)
01:00 6.30851020010NNE0
02:00 4.6089102003OSO0
03:00 4.4089101903SE0
04:00 2.9091101900---0
05:00 2.4093101902SSE0
06:00 1.7093101900---0
07:00 1.4094101900---0
08:00 2.5094101900---0
09:00 6.9087101906SSE50
10:00 9.308010191SE6SE60
11:00 10.207810191---10O25
12:00 12.307710191SE8ONO30
13:00 15.107210183SSE15O20
14:00 16.2065101812NO34NO20
15:00 16.6064101717NO32NO25
16:00 17.7064101718NO32NNO60
17:00 17.9060101715NO31NO45
18:00 16.9065101612ONO31ONO25
19:00 16.706810168NO26NO0
20:00 16.706510166NO23ONO25
21:00 14.007310165NO19NO20
22:00 10.40851017010NNO0
23:00 9.4086101705SE0
minuit 8.3089101703SSE0

Graphique du 30-04-2019

 

Serveur OMMA